Time;durP1;ratioP1;P1;durP2;ratioP2;P2;SDS_P1;SDS_P2;PMS_P1;PMS_P2;Temp;Humidity;BMP_temperature;BMP_pressure;BME280_temperature;BME280_humidity;BME280_pressure;Samples;Min_cycle;Max_cycle;Signal;HPM_P1;HPM_P2
2021/01/27 00:00:29;;;;;;;18.55;8.70;;;;;;;19.10;17.49;97721.09;5044114;28;20033;-89
2021/01/27 00:02:56;;;;;;;21.90;11.15;;;;;;;18.77;17.67;97721.72;5064718;28;20037;-88
2021/01/27 00:05:31;;;;;;;17.05;9.23;;;;;;;18.05;18.59;97722.44;5051262;28;20060;-89
2021/01/27 00:07:57;;;;;;;17.98;7.82;;;;;;;18.51;18.14;97731.41;5050233;28;20021;-89
2021/01/27 00:10:24;;;;;;;18.80;8.40;;;;;;;17.36;19.82;97727.72;5042289;28;20041;-88
2021/01/27 00:12:50;;;;;;;12.85;6.93;;;;;;;17.55;19.57;97730.13;5043883;28;20074;-89
2021/01/27 00:15:21;;;;;;;17.27;8.55;;;;;;;18.84;18.30;97735.59;5043629;28;20025;-89
2021/01/27 00:17:47;;;;;;;22.27;9.85;;;;;;;19.49;17.52;97729.13;5042768;28;20151;-89
2021/01/27 00:20:15;;;;;;;18.55;9.05;;;;;;;18.72;18.17;97730.50;5045374;28;20067;-89
2021/01/27 00:22:42;;;;;;;18.42;8.68;;;;;;;18.86;18.10;97733.19;5043982;28;20044;-89
2021/01/27 00:25:09;;;;;;;19.13;8.38;;;;;;;18.68;18.17;97732.50;5040943;28;20068;-89
2021/01/27 00:27:35;;;;;;;16.42;8.35;;;;;;;19.15;17.90;97723.44;5046313;28;20032;-89
2021/01/27 00:30:02;;;;;;;15.23;9.18;;;;;;;18.72;17.98;97727.72;5041763;28;20398;-89
2021/01/27 00:32:29;;;;;;;16.15;8.38;;;;;;;18.62;18.05;97732.16;5047380;28;20087;-89
2021/01/27 00:34:55;;;;;;;20.00;10.10;;;;;;;17.94;18.79;97728.06;5043926;28;20033;-89
2021/01/27 00:37:22;;;;;;;17.50;9.63;;;;;;;18.53;18.27;97724.25;5042351;28;20032;-89
2021/01/27 00:39:48;;;;;;;21.52;9.25;;;;;;;18.26;18.45;97730.69;5043463;28;20037;-89
2021/01/27 00:42:14;;;;;;;17.95;9.07;;;;;;;17.56;19.39;97723.34;5043311;28;20112;-89
2021/01/27 00:44:40;;;;;;;17.88;8.55;;;;;;;17.80;19.23;97725.31;5045207;28;20036;-89
2021/01/27 00:47:06;;;;;;;18.23;8.95;;;;;;;17.84;19.06;97729.66;5040609;28;20052;-89
2021/01/27 00:49:32;;;;;;;18.30;9.20;;;;;;;17.93;19.04;97734.78;5042667;28;20033;-89
2021/01/27 00:51:59;;;;;;;17.17;9.23;;;;;;;18.85;18.12;97726.06;5044130;28;20049;-89
2021/01/27 00:54:25;;;;;;;18.60;8.57;;;;;;;18.27;18.53;97727.53;5047994;28;20032;-89
2021/01/27 00:56:51;;;;;;;13.57;7.00;;;;;;;19.36;17.36;97716.94;5043699;28;20503;-89
2021/01/27 00:59:17;;;;;;;15.70;7.70;;;;;;;19.31;17.43;97707.81;5039641;28;20478;-89
2021/01/27 01:01:43;;;;;;;16.88;8.07;;;;;;;19.45;17.09;97708.91;5042232;28;20067;-90
2021/01/27 01:04:09;;;;;;;17.75;8.88;;;;;;;19.33;17.11;97701.81;5041830;28;20041;-89
2021/01/27 01:06:35;;;;;;;15.88;7.72;;;;;;;20.02;16.47;97703.53;5039275;28;20029;-90
2021/01/27 01:09:01;;;;;;;16.45;7.80;;;;;;;19.05;17.01;97699.28;5039619;28;22690;-89
2021/01/27 01:11:27;;;;;;;15.40;8.13;;;;;;;19.70;16.85;97701.88;5042232;28;20116;-89
2021/01/27 01:13:53;;;;;;;23.60;9.32;;;;;;;19.07;17.42;97713.56;5042393;28;20095;-89
2021/01/27 01:16:20;;;;;;;16.42;7.65;;;;;;;19.78;16.96;97706.19;5039997;28;20452;-89
2021/01/27 01:18:46;;;;;;;12.75;6.40;;;;;;;20.30;16.48;97706.00;5040308;28;20033;-89
2021/01/27 01:21:12;;;;;;;11.70;6.70;;;;;;;20.46;16.42;97711.78;5040998;28;20029;-89
2021/01/27 01:23:38;;;;;;;11.70;7.03;;;;;;;21.01;15.89;97703.78;5042180;28;20044;-89
2021/01/27 01:26:04;;;;;;;14.60;7.25;;;;;;;21.01;15.89;97703.78;5040621;28;20048;-89
2021/01/27 01:28:30;;;;;;;14.15;7.10;;;;;;;20.45;16.17;97708.19;5040332;28;20029;-89
2021/01/27 01:30:56;;;;;;;11.45;6.32;;;;;;;20.57;16.24;97702.06;5042724;28;20395;-90
2021/01/27 01:33:28;;;;;;;14.82;7.60;;;;;;;20.57;16.21;97699.28;5039088;28;20033;-89
2021/01/27 01:35:54;;;;;;;12.05;6.65;;;;;;;20.45;16.03;97699.81;5043877;28;20033;-90
2021/01/27 01:38:21;;;;;;;14.90;7.13;;;;;;;20.33;16.34;97694.81;5041275;28;20037;-90
2021/01/27 01:40:51;;;;;;;14.00;6.68;;;;;;;20.57;16.12;97698.47;5041765;28;20487;-90
2021/01/27 01:43:24;;;;;;;9.82;5.90;;;;;;;19.91;16.78;97698.88;5043266;28;20043;-89
2021/01/27 01:46:27;;;;;;;11.18;5.72;;;;;;;20.36;16.50;97705.13;5041161;28;20049;-89
2021/01/27 01:49:03;;;;;;;21.58;7.32;;;;;;;19.91;16.93;97701.66;5016474;28;20057;-88
2021/01/27 01:51:54;;;;;;;11.80;5.97;;;;;;;20.13;16.91;97696.63;5039911;28;20025;-90
2021/01/27 01:54:39;;;;;;;13.95;7.22;;;;;;;19.91;17.14;97706.44;5046518;28;20103;-89
2021/01/27 01:57:21;;;;;;;16.48;7.53;;;;;;;18.92;18.01;97704.56;5041088;28;20037;-89
2021/01/27 02:00:02;;;;;;;12.52;7.40;;;;;;;18.12;19.55;97714.09;5041908;28;20021;-89
2021/01/27 02:02:32;;;;;;;14.32;7.45;;;;;;;17.02;21.06;97719.00;5039290;28;20033;-88
2021/01/27 02:05:30;;;;;;;15.55;7.82;;;;;;;17.80;20.79;97719.75;5043867;28;20025;-88
2021/01/27 02:07:57;;;;;;;14.07;6.15;;;;;;;18.64;19.71;97715.84;5037923;28;20517;-88
2021/01/27 02:10:24;;;;;;;11.85;6.53;;;;;;;19.24;19.28;97721.00;5042847;28;20398;-88
2021/01/27 02:13:16;;;;;;;14.45;6.82;;;;;;;19.35;18.89;97702.19;5040167;28;20037;-89
2021/01/27 02:16:14;;;;;;;13.40;7.57;;;;;;;17.96;20.52;97709.00;5056175;28;20033;-89
2021/01/27 02:19:23;;;;;;;12.45;6.10;;;;;;;17.55;21.21;97699.59;5045292;28;20125;-88
2021/01/27 02:22:27;;;;;;;10.60;6.22;;;;;;;17.99;20.73;97702.63;5042541;28;20091;-89
2021/01/27 02:24:56;;;;;;;13.88;5.63;;;;;;;18.70;19.86;97700.31;5042010;28;20045;-88
2021/01/27 02:27:27;;;;;;;12.05;6.35;;;;;;;18.76;19.62;97698.69;5044743;28;20029;-88
2021/01/27 02:30:11;;;;;;;11.32;5.78;;;;;;;18.92;19.58;97703.75;5038353;28;20037;-89
2021/01/27 02:32:50;;;;;;;12.75;6.80;;;;;;;18.84;19.73;97691.06;5040982;28;20045;-89
2021/01/27 02:35:28;;;;;;;9.73;5.53;;;;;;;18.42;20.20;97698.47;5042379;28;20069;-89
2021/01/27 02:38:20;;;;;;;12.05;5.93;;;;;;;18.72;20.10;97700.69;5036358;28;20037;-89
2021/01/27 02:40:55;;;;;;;13.45;6.97;;;;;;;19.22;19.36;97690.78;5040783;28;20041;-89
2021/01/27 02:43:46;;;;;;;10.55;6.43;;;;;;;19.65;19.08;97693.97;5058833;28;20033;-89
2021/01/27 02:46:12;;;;;;;;;;;;;;;19.76;18.87;97686.31;5042180;28;20561;-89
2021/01/27 02:48:56;;;;;;;8.48;5.13;;;;;;;19.70;18.81;97699.09;5043314;28;20007;-89
2021/01/27 02:51:40;;;;;;;9.93;5.32;;;;;;;20.18;18.36;97701.75;5040871;28;20048;-90
2021/01/27 02:54:14;;;;;;;9.25;5.20;;;;;;;20.24;18.38;97697.31;5039280;28;20028;-90
2021/01/27 02:56:49;;;;;;;10.30;4.90;;;;;;;20.07;18.51;97703.84;5037703;28;20049;-89
2021/01/27 02:59:34;;;;;;;8.88;5.32;;;;;;;19.38;19.39;97704.19;5043494;28;20040;-89
2021/01/27 03:02:17;;;;;;;9.55;4.38;;;;;;;19.92;18.94;97703.25;5040511;28;20138;-89
2021/01/27 03:04:53;;;;;;;8.50;5.00;;;;;;;19.53;19.04;97702.06;5043113;28;20038;-89
2021/01/27 03:07:21;;;;;;;9.65;4.75;;;;;;;19.09;19.45;97706.38;5038674;28;20509;-89
2021/01/27 03:09:59;;;;;;;8.23;4.15;;;;;;;19.67;19.03;97691.59;5038212;28;20160;-89
2021/01/27 03:12:25;;;;;;;9.77;4.55;;;;;;;19.05;19.57;97693.69;5043218;28;20036;-89
2021/01/27 03:14:51;;;;;;;6.93;4.55;;;;;;;18.71;20.14;97706.69;5040914;28;20115;-89
2021/01/27 03:17:20;;;;;;;8.30;4.55;;;;;;;17.70;21.49;97698.34;5041441;28;20033;-89
2021/01/27 03:20:05;;;;;;;7.93;4.97;;;;;;;18.19;20.77;97697.38;5043029;28;20083;-89
2021/01/27 03:22:43;;;;;;;6.05;3.60;;;;;;;19.43;19.42;97687.06;5042879;28;20108;-90
2021/01/27 03:25:22;;;;;;;6.65;4.30;;;;;;;17.81;20.66;97690.78;5044854;28;20127;-89
2021/01/27 03:28:19;;;;;;;7.43;3.85;;;;;;;19.03;19.76;97691.34;5041973;28;20028;-90
2021/01/27 03:30:45;;;;;;;7.13;3.72;;;;;;;19.60;18.96;97682.50;5050979;28;20033;-90
2021/01/27 03:33:17;;;;;;;4.93;3.17;;;;;;;20.36;18.17;97687.59;5046772;28;20440;-88
2021/01/27 03:35:51;;;;;;;6.20;4.18;;;;;;;19.92;18.72;97688.53;5043908;28;20474;-88
2021/01/27 03:38:39;;;;;;;5.43;3.47;;;;;;;19.49;19.25;97685.38;5041147;28;20495;-88
2021/01/27 03:41:27;;;;;;;7.15;4.05;;;;;;;20.29;18.20;97670.97;5045142;28;20472;-88
2021/01/27 03:44:11;;;;;;;4.13;3.53;;;;;;;20.07;18.65;97692.72;5044483;28;20035;-88
2021/01/27 03:47:11;;;;;;;8.68;4.00;;;;;;;19.35;18.86;97691.06;5045398;28;20443;-88
2021/01/27 03:49:58;;;;;;;6.35;3.67;;;;;;;19.79;18.70;97693.06;5042729;28;20055;-89
2021/01/27 03:52:36;;;;;;;7.05;3.58;;;;;;;19.86;18.80;97690.97;5042725;28;20041;-89
2021/01/27 03:55:09;;;;;;;6.60;3.67;;;;;;;19.87;18.80;97689.78;5056878;28;20120;-89
2021/01/27 03:57:45;;;;;;;4.95;3.55;;;;;;;19.65;18.90;97693.22;5055043;28;20117;-89
2021/01/27 04:00:11;;;;;;;6.13;3.85;;;;;;;20.00;18.69;97692.78;5054249;28;20473;-89
2021/01/27 04:02:37;;;;;;;7.95;4.38;;;;;;;20.10;18.46;97694.66;5054314;28;20508;-89
2021/01/27 04:05:04;;;;;;;6.30;3.83;;;;;;;20.29;18.14;97699.66;5053170;28;20047;-89
2021/01/27 04:07:30;;;;;;;6.18;3.78;;;;;;;20.19;18.39;97691.38;5052092;28;20037;-89
2021/01/27 04:09:56;;;;;;;12.90;5.03;;;;;;;19.40;19.10;97690.66;5049790;28;20506;-89
2021/01/27 04:12:22;;;;;;;6.45;4.03;;;;;;;19.78;19.06;97689.47;5049181;28;20044;-89
2021/01/27 04:14:48;;;;;;;9.45;4.55;;;;;;;18.96;19.73;97693.38;5047619;28;20044;-88
2021/01/27 04:17:29;;;;;;;7.85;3.65;;;;;;;19.46;19.37;97686.22;5043214;28;20057;-88
2021/01/27 04:19:56;;;;;;;6.95;4.47;;;;;;;19.19;19.61;97697.16;5042908;28;20033;-88
2021/01/27 04:22:22;;;;;;;6.68;4.10;;;;;;;19.83;18.83;97691.03;5044724;28;20040;-88
2021/01/27 04:24:49;;;;;;;8.35;4.82;;;;;;;19.65;19.19;97688.41;5053628;28;20044;-87
2021/01/27 04:27:15;;;;;;;5.13;3.55;;;;;;;19.16;19.45;97695.19;5050883;28;20056;-87
2021/01/27 04:29:41;;;;;;;7.45;4.07;;;;;;;18.70;20.29;97696.72;5048382;28;20390;-88
2021/01/27 04:32:08;;;;;;;8.13;5.25;;;;;;;18.19;20.96;97692.63;5048664;28;20037;-88
2021/01/27 04:34:34;;;;;;;9.63;5.72;;;;;;;18.03;21.00;97700.63;5051860;28;20802;-87
2021/01/27 04:37:02;;;;;;;7.68;4.65;;;;;;;17.86;21.51;97701.47;5052680;28;20078;-87
2021/01/27 04:39:28;;;;;;;9.75;4.90;;;;;;;18.10;20.97;97697.84;5053415;28;20111;-88
2021/01/27 04:41:55;;;;;;;9.32;4.95;;;;;;;18.47;20.41;97691.72;5059741;28;20079;-87
2021/01/27 04:44:22;;;;;;;7.55;3.90;;;;;;;18.93;19.78;97689.41;5053301;28;20551;-88
2021/01/27 04:47:16;;;;;;;5.20;3.45;;;;;;;19.22;19.77;97690.78;5052377;28;20094;-88
2021/01/27 04:49:50;;;;;;;7.47;4.15;;;;;;;19.55;19.15;97691.31;5049776;28;20025;-88
2021/01/27 04:52:28;;;;;;;8.25;4.82;;;;;;;19.09;20.05;97697.28;5055863;28;20033;-88
2021/01/27 04:54:54;;;;;;;9.88;4.60;;;;;;;18.74;20.21;97697.53;5045277;28;20037;-88
2021/01/27 04:57:29;;;;;;;10.63;5.88;;;;;;;18.48;20.59;97696.09;5050533;28;20391;-87
2021/01/27 05:00:28;;;;;;;8.65;5.18;;;;;;;18.84;20.40;97694.66;5051290;28;20048;-88
2021/01/27 05:03:20;;;;;;;9.65;5.85;;;;;;;17.92;21.15;97691.56;5048631;28;20033;-88
2021/01/27 05:05:55;;;;;;;7.38;4.60;;;;;;;18.69;20.24;97689.63;5050633;28;20039;-88
2021/01/27 05:08:30;;;;;;;10.13;5.18;;;;;;;19.73;19.37;97689.13;5048870;28;20037;-89
2021/01/27 05:11:02;;;;;;;6.70;3.83;;;;;;;20.52;18.51;97685.78;5051148;28;20444;-88
2021/01/27 05:13:34;;;;;;;7.70;4.43;;;;;;;20.22;18.66;97691.38;5049728;28;20052;-86
2021/01/27 05:16:03;;;;;;;8.48;5.13;;;;;;;20.07;18.78;97694.72;5049579;28;20036;-88
2021/01/27 05:18:29;;;;;;;7.50;4.22;;;;;;;20.52;18.44;97694.16;5048780;28;20036;-89
2021/01/27 05:20:55;;;;;;;7.88;4.22;;;;;;;20.54;18.41;97699.31;5045410;28;20075;-90
2021/01/27 05:23:22;;;;;;;8.05;3.95;;;;;;;20.84;18.09;97699.25;5051205;28;20029;-88
2021/01/27 05:25:59;;;;;;;9.48;4.85;;;;;;;20.57;18.25;97696.47;5046588;28;20053;-90
2021/01/27 05:28:30;;;;;;;6.82;4.43;;;;;;;20.84;17.95;97693.69;5060350;28;20035;-88
2021/01/27 05:30:56;;;;;;;;;;;;;;;20.17;18.55;97691.78;5049815;28;20512;-91
2021/01/27 05:33:51;;;;;;;11.63;5.45;;;;;;;20.20;18.67;97692.97;5054548;28;20015;-90
2021/01/27 05:36:26;;;;;;;8.98;5.15;;;;;;;20.22;18.52;97688.59;5054690;28;20063;-90
2021/01/27 05:39:10;;;;;;;8.77;4.78;;;;;;;19.37;19.51;97691.47;5043841;28;20048;-90
2021/01/27 05:41:36;;;;;;;8.13;4.22;;;;;;;19.17;19.59;97687.66;5064136;28;20115;-91
2021/01/27 05:44:09;;;;;;;11.05;5.50;;;;;;;19.68;19.23;97689.56;5047151;28;20029;-88
2021/01/27 05:46:37;;;;;;;10.55;4.55;;;;;;;19.78;18.98;97688.69;5041939;28;20495;-88
2021/01/27 05:49:10;;;;;;;8.15;4.25;;;;;;;20.15;18.71;97694.22;5042609;28;20041;-87
2021/01/27 05:51:38;;;;;;;9.65;5.35;;;;;;;19.88;18.86;97691.34;5040456;28;20555;-86
2021/01/27 05:54:27;;;;;;;7.38;3.90;;;;;;;19.60;19.43;97693.66;5038896;28;20116;-87
2021/01/27 05:56:54;;;;;;;11.27;5.88;;;;;;;20.23;18.67;97686.59;5042562;28;20044;-88
2021/01/27 05:59:26;;;;;;;11.60;6.50;;;;;;;20.65;18.20;97688.81;5045531;28;20044;-88
2021/01/27 06:02:00;;;;;;;38.58;17.58;;;;;;;20.76;18.06;97692.22;5049999;28;20036;-88
2021/01/27 06:04:28;;;;;;;11.43;6.10;;;;;;;21.09;17.74;97699.72;5045005;28;20120;-87
2021/01/27 06:07:00;;;;;;;8.43;5.72;;;;;;;19.92;18.69;97696.88;5054756;28;20039;-87
2021/01/27 06:09:38;;;;;;;9.48;5.43;;;;;;;19.83;19.18;97694.59;5044829;28;20044;-86
2021/01/27 06:12:09;;;;;;;10.30;5.75;;;;;;;20.21;18.58;97706.47;5039566;28;20036;-87
2021/01/27 06:14:35;;;;;;;9.00;5.13;;;;;;;19.15;19.74;97707.56;5048702;28;20044;-86
2021/01/27 06:17:28;;;;;;;8.27;4.25;;;;;;;18.82;20.23;97712.94;5039606;28;20056;-89
2021/01/27 06:20:18;;;;;;;6.70;4.50;;;;;;;18.27;20.78;97705.31;5046289;28;20025;-88
2021/01/27 06:23:09;;;;;;;6.95;4.40;;;;;;;19.18;19.86;97705.94;5046651;28;20401;-89
2021/01/27 06:26:23;;;;;;;9.43;5.20;;;;;;;18.85;20.21;97715.72;5048949;28;20449;-83
2021/01/27 06:29:17;;;;;;;5.65;3.95;;;;;;;18.69;20.46;97711.84;4985682;28;20128;-86
2021/01/27 06:32:10;;;;;;;8.13;5.28;;;;;;;18.55;20.70;97707.19;4988972;28;20042;-86
2021/01/27 06:35:24;;;;;;;8.57;5.18;;;;;;;18.69;20.30;97718.22;5046383;28;20056;-86
2021/01/27 06:38:26;;;;;;;16.73;8.57;;;;;;;18.06;21.33;97712.94;5033467;28;20111;-86
2021/01/27 06:41:35;;;;;;;11.40;6.50;;;;;;;18.25;21.05;97715.25;5052159;28;20040;-88
2021/01/27 06:44:23;;;;;;;12.30;6.97;;;;;;;18.71;20.70;97717.78;5041085;28;20032;-89
2021/01/27 06:47:05;;;;;;;12.82;7.25;;;;;;;18.38;21.05;97711.59;5046434;28;20033;-89
2021/01/27 06:49:51;;;;;;;10.70;7.00;;;;;;;17.55;22.02;97711.47;5048154;28;20429;-89
2021/01/27 06:52:24;;;;;;;12.57;6.72;;;;;;;18.06;21.33;97716.50;5044375;28;20040;-89
2021/01/27 06:55:05;;;;;;;18.13;9.45;;;;;;;19.31;20.16;97707.81;5042020;28;20106;-89
2021/01/27 06:57:45;;;;;;;15.27;8.38;;;;;;;18.26;21.23;97723.16;5044476;28;20033;-89
2021/01/27 07:00:56;;;;;;;10.60;6.43;;;;;;;18.61;21.01;97722.22;5044538;28;20471;-89
2021/01/27 07:03:40;;;;;;;14.98;8.38;;;;;;;19.31;20.10;97723.72;5038566;28;20509;-89
2021/01/27 07:06:22;;;;;;;11.57;6.43;;;;;;;17.72;22.14;97730.06;5046248;28;20033;-90
2021/01/27 07:09:16;;;;;;;12.45;7.57;;;;;;;18.47;20.88;97730.63;5038894;28;20443;-90
2021/01/27 07:12:30;;;;;;;11.15;5.97;;;;;;;17.85;22.27;97733.22;5056252;28;20076;-90
2021/01/27 07:15:08;;;;;;;15.65;7.57;;;;;;;18.29;21.29;97736.25;5040213;28;20398;-90
2021/01/27 07:18:09;;;;;;;10.73;6.47;;;;;;;17.79;22.08;97734.81;5042741;28;20045;-89
2021/01/27 07:20:54;;;;;;;14.02;8.30;;;;;;;17.04;22.85;97728.50;5040830;28;20064;-89
2021/01/27 07:23:30;;;;;;;13.10;7.20;;;;;;;17.32;22.90;97730.50;5038104;28;20072;-89
2021/01/27 07:26:17;;;;;;;11.07;7.45;;;;;;;16.62;23.35;97739.53;5058825;28;21250;-89
2021/01/27 07:29:09;;;;;;;14.68;8.40;;;;;;;17.19;22.55;97730.09;5043712;28;20120;-89
2021/01/27 07:31:50;;;;;;;14.50;7.95;;;;;;;17.52;22.62;97728.94;5045372;28;20047;-90
2021/01/27 07:34:27;;;;;;;15.60;8.43;;;;;;;18.02;21.96;97732.38;5054065;28;20040;-90
2021/01/27 07:37:14;;;;;;;16.85;9.43;;;;;;;17.18;22.76;97730.50;5041143;28;20088;-89
2021/01/27 07:40:01;;;;;;;16.83;9.05;;;;;;;17.53;22.39;97733.28;5040374;28;20124;-89
2021/01/27 07:42:53;;;;;;;18.33;10.50;;;;;;;16.93;23.10;97736.03;5044050;28;20029;-88
2021/01/27 07:45:30;;;;;;;19.35;10.88;;;;;;;18.18;22.13;97737.50;5041731;28;20029;-89
2021/01/27 07:48:02;;;;;;;19.60;10.27;;;;;;;17.60;22.81;97738.81;5046638;28;20435;-90
2021/01/27 07:50:29;;;;;;;23.00;11.38;;;;;;;17.80;22.30;97737.22;5049274;28;20090;-89
2021/01/27 07:53:11;;;;;;;13.95;7.75;;;;;;;16.88;23.19;97736.41;5043382;28;20033;-89
2021/01/27 07:55:47;;;;;;;17.00;9.80;;;;;;;16.93;23.53;97736.03;5039952;28;20379;-90
2021/01/27 07:58:16;;;;;;;19.45;11.05;;;;;;;17.38;22.70;97734.47;5044931;28;20040;-89
2021/01/27 08:01:14;;;;;;;19.40;10.07;;;;;;;18.41;21.55;97735.00;5048553;28;20127;-90
2021/01/27 08:03:52;;;;;;;18.67;10.35;;;;;;;17.82;22.10;97731.25;5040743;28;20064;-89
2021/01/27 08:06:21;;;;;;;20.73;11.38;;;;;;;18.45;21.06;97739.38;5046363;28;20087;-90
2021/01/27 08:08:55;;;;;;;19.17;11.15;;;;;;;17.29;22.72;97737.63;5049097;28;20396;-90
2021/01/27 08:11:43;;;;;;;19.75;10.98;;;;;;;17.95;22.18;97749.06;5048080;28;20072;-90
2021/01/27 08:14:14;;;;;;;23.63;12.25;;;;;;;18.01;22.37;97747.47;5048420;28;20140;-90
2021/01/27 08:16:47;;;;;;;20.85;11.88;;;;;;;17.73;22.33;97748.34;5044689;28;20045;-90
2021/01/27 08:19:13;;;;;;;19.00;11.15;;;;;;;16.99;23.17;97745.53;5046522;28;20119;-90
2021/01/27 08:21:54;;;;;;;20.10;10.98;;;;;;;15.39;25.38;97755.47;5046361;28;20072;-89
2021/01/27 08:24:38;;;;;;;20.52;11.13;;;;;;;16.44;24.30;97756.09;5046830;28;20363;-89
2021/01/27 08:27:10;;;;;;;24.52;13.40;;;;;;;16.77;23.59;97751.44;5049983;28;20048;-89
2021/01/27 08:30:02;;;;;;;16.50;9.48;;;;;;;16.02;24.15;97753.13;5048427;28;20488;-88
2021/01/27 08:32:38;;;;;;;21.38;11.43;;;;;;;17.23;22.96;97753.09;5052474;28;20429;-89
2021/01/27 08:35:06;;;;;;;24.13;12.40;;;;;;;17.75;22.39;97751.50;5052602;28;20041;-89
2021/01/27 08:37:40;;;;;;;20.88;11.95;;;;;;;17.45;22.68;97758.63;5047251;28;20040;-89
2021/01/27 08:40:29;;;;;;;19.95;11.63;;;;;;;16.71;23.69;97764.88;5052374;28;20037;-89
2021/01/27 08:42:59;;;;;;;22.50;12.48;;;;;;;17.10;23.38;97760.22;5043207;28;20035;-90
2021/01/27 08:45:27;;;;;;;25.88;13.70;;;;;;;17.12;22.92;97757.84;5045883;28;20037;-89
2021/01/27 08:47:55;;;;;;;21.23;11.73;;;;;;;16.45;24.17;97768.75;5048891;28;20501;-90
2021/01/27 08:50:43;;;;;;;19.60;10.65;;;;;;;16.10;24.41;97768.63;5050999;28;20028;-87
2021/01/27 08:53:20;;;;;;;23.77;12.18;;;;;;;17.12;23.47;97762.59;5048179;28;20087;-89
2021/01/27 08:55:46;;;;;;;20.23;11.48;;;;;;;17.71;22.88;97769.34;5045264;28;20552;-88
2021/01/27 08:58:35;;;;;;;21.17;11.05;;;;;;;17.56;22.71;97763.03;5047042;28;20036;-87
2021/01/27 09:01:21;;;;;;;21.52;11.63;;;;;;;18.47;21.64;97764.78;5040780;28;20030;-87
2021/01/27 09:03:50;;;;;;;15.50;8.63;;;;;;;16.92;23.47;97764.94;5047152;28;20488;-87
2021/01/27 09:06:28;;;;;;;22.02;13.00;;;;;;;17.08;23.21;97770.91;5042534;28;20033;-88
2021/01/27 09:09:14;;;;;;;27.95;13.23;;;;;;;16.14;24.46;97777.72;5042348;28;20495;-86
2021/01/27 09:11:40;;;;;;;25.15;12.93;;;;;;;16.52;23.77;97776.34;5040805;28;20106;-86
2021/01/27 09:14:09;;;;;;;20.27;10.88;;;;;;;16.22;24.00;97771.03;5044696;28;20033;-87
2021/01/27 09:16:36;;;;;;;18.00;10.27;;;;;;;16.91;23.56;97776.44;5047087;28;20120;-87
2021/01/27 09:19:09;;;;;;;19.45;10.60;;;;;;;16.07;24.24;97779.66;5041197;28;20060;-86
2021/01/27 09:21:36;;;;;;;18.80;11.13;;;;;;;16.60;23.99;97777.94;5041307;28;20475;-87
2021/01/27 09:24:16;;;;;;;18.38;9.43;;;;;;;17.20;23.01;97778.84;5044707;28;20044;-87
2021/01/27 09:26:51;;;;;;;18.97;9.47;;;;;;;18.23;21.53;97778.72;5043457;28;20124;-87
2021/01/27 09:29:32;;;;;;;19.65;10.68;;;;;;;17.59;21.77;97778.09;5044101;28;20279;-86
2021/01/27 09:32:09;;;;;;;20.33;10.43;;;;;;;17.02;22.76;97780.81;5048870;28;20030;-88
2021/01/27 09:34:35;;;;;;;17.08;8.63;;;;;;;17.10;22.61;97779.63;5043141;28;20037;-87
2021/01/27 09:37:08;;;;;;;17.83;9.38;;;;;;;17.39;22.60;97788.75;5045940;28;20394;-89
2021/01/27 09:39:36;;;;;;;18.38;10.23;;;;;;;17.02;22.54;97778.03;5041638;28;20036;-88
2021/01/27 09:42:21;;;;;;;20.50;9.68;;;;;;;17.48;22.40;97778.06;5041326;28;20026;-89
2021/01/27 09:44:53;;;;;;;16.65;9.05;;;;;;;16.69;22.70;97774.78;5042504;28;20522;-88
2021/01/27 09:47:20;;;;;;;17.48;9.85;;;;;;;16.49;22.97;97768.75;5038484;28;20123;-87
2021/01/27 09:49:49;;;;;;;18.00;8.10;;;;;;;15.60;23.67;97777.78;5041173;28;20041;-87
2021/01/27 09:52:17;;;;;;;16.98;8.40;;;;;;;17.28;22.20;97766.56;5041714;28;20461;-88
2021/01/27 09:54:47;;;;;;;15.80;7.57;;;;;;;17.22;21.83;97761.81;5041139;28;20037;-87
2021/01/27 09:57:16;;;;;;;17.65;8.30;;;;;;;17.19;22.17;97771.72;5040039;28;20040;-87
2021/01/27 09:59:52;;;;;;;12.02;6.60;;;;;;;16.59;22.35;97757.72;5039425;28;20114;-87
2021/01/27 10:02:32;;;;;;;11.25;6.40;;;;;;;16.93;22.53;97766.53;5041626;28;20079;-88
2021/01/27 10:04:58;;;;;;;14.05;7.07;;;;;;;17.93;21.21;97766.13;5044418;28;20376;-88
2021/01/27 10:07:38;;;;;;;12.00;6.88;;;;;;;17.66;21.38;97766.97;5037943;28;20041;-88
2021/01/27 10:10:15;;;;;;;13.18;6.30;;;;;;;17.75;21.32;97770.13;5039474;28;20728;-88
2021/01/27 10:12:43;;;;;;;13.00;7.25;;;;;;;18.62;20.43;97765.53;5050940;28;20491;-88
2021/01/27 10:15:24;;;;;;;16.45;7.95;;;;;;;16.34;22.08;97762.38;5047657;28;20040;-87
2021/01/27 10:18:11;;;;;;;11.07;6.22;;;;;;;16.71;22.11;97767.66;5056122;28;20067;-87
2021/01/27 10:20:40;;;;;;;17.40;9.13;;;;;;;17.43;21.42;97769.34;5040263;28;20053;-88
2021/01/27 10:23:12;;;;;;;14.98;7.90;;;;;;;18.61;20.33;97758.38;5040732;28;20044;-88
2021/01/27 10:25:44;;;;;;;14.98;7.72;;;;;;;17.09;21.66;97766.16;5045253;28;20056;-88
2021/01/27 10:28:22;;;;;;;13.23;6.28;;;;;;;16.24;22.86;97776.97;5046210;28;20064;-88
2021/01/27 10:31:00;;;;;;;16.67;7.68;;;;;;;17.55;21.46;97780.09;5040298;28;20037;-89
2021/01/27 10:33:48;;;;;;;15.25;8.55;;;;;;;17.10;22.02;97764.97;5040981;28;20025;-87
2021/01/27 10:36:31;;;;;;;17.77;8.45;;;;;;;17.00;22.15;97782.38;5044312;28;20585;-88
2021/01/27 10:39:15;;;;;;;17.95;9.43;;;;;;;17.54;21.90;97778.47;5039244;28;20041;-85
2021/01/27 10:41:43;;;;;;;15.57;9.00;;;;;;;17.06;22.82;97781.59;5049577;28;20120;-86
2021/01/27 10:44:27;;;;;;;19.95;8.88;;;;;;;18.10;21.87;97777.59;5048750;28;20033;-87
2021/01/27 10:46:57;;;;;;;12.88;7.45;;;;;;;18.67;21.04;97781.00;5045572;28;20432;-86
2021/01/27 10:49:24;;;;;;;19.33;9.07;;;;;;;17.93;21.97;97773.66;5041314;28;20041;-86
2021/01/27 10:51:50;;;;;;;17.38;9.30;;;;;;;18.73;21.06;97773.78;5043805;28;20036;-86
2021/01/27 10:54:21;;;;;;;14.10;8.20;;;;;;;18.69;20.79;97773.03;5038491;28;20163;-86
2021/01/27 10:56:52;;;;;;;14.85;7.90;;;;;;;18.35;21.13;97772.75;5045436;28;20390;-86
2021/01/27 10:59:19;;;;;;;16.35;8.23;;;;;;;19.06;19.97;97773.22;5041442;28;20108;-86
2021/01/27 11:01:45;;;;;;;16.30;8.20;;;;;;;18.13;21.00;97765.69;5040079;28;20509;-86
2021/01/27 11:04:11;;;;;;;11.68;6.22;;;;;;;17.20;22.13;97769.72;5039193;28;20487;-86
2021/01/27 11:06:39;;;;;;;12.77;6.78;;;;;;;17.58;21.99;97771.75;5046488;28;20434;-86
2021/01/27 11:09:06;;;;;;;11.65;5.97;;;;;;;17.93;21.34;97770.88;5042255;28;20516;-86
2021/01/27 11:11:32;;;;;;;14.60;6.25;;;;;;;18.27;20.95;97763.66;5044009;28;20039;-86
2021/01/27 11:13:58;;;;;;;10.25;5.88;;;;;;;19.16;19.92;97762.00;5040043;28;20038;-86
2021/01/27 11:16:24;;;;;;;12.30;6.85;;;;;;;18.83;20.31;97759.84;5043964;28;20036;-86
2021/01/27 11:18:50;;;;;;;15.30;6.32;;;;;;;16.59;22.89;97766.03;5043998;28;20064;-86
2021/01/27 11:21:18;;;;;;;14.18;6.93;;;;;;;16.84;22.97;97766.13;5038526;28;20030;-86
2021/01/27 11:23:44;;;;;;;26.45;11.93;;;;;;;17.01;22.90;97765.34;5054619;28;20033;-86
2021/01/27 11:26:10;;;;;;;13.10;6.82;;;;;;;17.65;22.04;97759.81;5042993;28;20029;-86
2021/01/27 11:28:36;;;;;;;11.52;5.78;;;;;;;17.43;22.63;97761.03;5045640;28;20382;-86
2021/01/27 11:31:02;;;;;;;10.07;5.63;;;;;;;17.59;22.46;97767.00;5050530;28;20049;-86
2021/01/27 11:33:28;;;;;;;12.93;6.40;;;;;;;16.74;22.68;97766.88;5044229;28;20560;-86
2021/01/27 11:35:54;;;;;;;10.93;6.03;;;;;;;16.43;23.38;97764.78;5049437;28;20067;-86
2021/01/27 11:38:21;;;;;;;11.75;6.82;;;;;;;16.24;23.14;97776.97;5048431;28;20452;-86
2021/01/27 11:40:47;;;;;;;13.18;7.90;;;;;;;17.22;22.70;97759.81;5048540;28;20043;-86
2021/01/27 11:43:15;;;;;;;15.73;10.13;;;;;;;17.81;21.70;97757.41;5045555;28;20040;-85
2021/01/27 11:45:41;;;;;;;11.02;6.15;;;;;;;16.47;23.22;97758.09;5049854;28;20039;-86
2021/01/27 11:48:07;;;;;;;20.05;13.60;;;;;;;16.15;23.87;97753.59;5048838;28;20486;-85
2021/01/27 11:50:33;;;;;;;14.50;7.70;;;;;;;17.06;22.59;97748.31;5043120;28;20087;-86
2021/01/27 11:52:59;;;;;;;16.48;9.25;;;;;;;18.12;21.58;97751.00;5042912;28;20052;-86
2021/01/27 11:55:25;;;;;;;11.27;6.28;;;;;;;17.68;21.65;97759.03;5040323;28;20049;-87
2021/01/27 11:57:51;;;;;;;13.35;6.35;;;;;;;18.15;21.34;97766.88;5048957;28;20113;-87
2021/01/27 12:00:20;;;;;;;10.38;6.00;;;;;;;18.44;21.01;97768.34;5044521;28;20095;-86
2021/01/27 12:02:47;;;;;;;11.40;6.65;;;;;;;16.59;23.33;97768.81;5047094;28;20036;-86